Time;durP1;ratioP1;P1;durP2;ratioP2;P2;SDS_P1;SDS_P2;PMS_P1;PMS_P2;Temp;Humidity;BMP_temperature;BMP_pressure;BME280_temperature;BME280_humidity;BME280_pressure;Samples;Min_cycle;Max_cycle;Signal;HPM_P1;HPM_P2
2021/07/04 00:00:39;;;;;;;6.95;5.50;;;20.20;97.80;;;;;;5065453;28;20027;-86
2021/07/04 00:03:05;;;;;;;8.52;5.80;;;20.20;97.80;;;;;;5084789;28;20024;-85
2021/07/04 00:05:40;;;;;;;7.13;5.10;;;20.20;97.90;;;;;;5074884;28;20028;-85
2021/07/04 00:08:08;;;;;;;7.57;5.30;;;20.10;97.80;;;;;;5075435;28;20473;-85
2021/07/04 00:10:36;;;;;;;7.13;5.10;;;20.10;97.90;;;;;;5058390;28;20027;-85
2021/07/04 00:13:03;;;;;;;7.05;5.78;;;20.00;98.10;;;;;;5060450;28;20016;-85
2021/07/04 00:15:34;;;;;;;7.88;5.45;;;19.90;98.00;;;;;;5062651;28;20048;-85
2021/07/04 00:18:00;;;;;;;;;;;19.90;98.10;;;;;;5053234;28;20124;-85
2021/07/04 00:20:26;;;;;;;6.38;4.75;;;19.90;98.20;;;;;;5070154;28;20377;-85
2021/07/04 00:22:54;;;;;;;7.95;5.47;;;19.80;98.30;;;;;;5044694;28;20056;-85
2021/07/04 00:25:22;;;;;;;5.47;4.68;;;19.80;98.30;;;;;;5058849;28;20032;-85
2021/07/04 00:27:48;;;;;;;5.97;4.82;;;19.70;98.40;;;;;;5073809;28;20039;-85
2021/07/04 00:30:15;;;;;;;6.28;4.35;;;19.70;98.40;;;;;;5076075;28;20023;-85
2021/07/04 00:32:41;;;;;;;9.30;4.30;;;19.70;98.50;;;;;;5081296;28;20530;-85
2021/07/04 00:35:09;;;;;;;6.13;4.18;;;19.60;98.50;;;;;;5071876;28;20023;-85
2021/07/04 00:37:35;;;;;;;6.13;4.25;;;19.60;98.60;;;;;;5043762;28;20024;-85
2021/07/04 00:40:02;;;;;;;5.70;4.03;;;19.60;98.70;;;;;;5064181;28;20116;-85
2021/07/04 00:42:27;;;;;;;6.53;4.13;;;19.60;98.70;;;;;;5087907;28;20032;-85
2021/07/04 00:44:53;;;;;;;5.75;4.07;;;19.60;98.80;;;;;;5049791;28;20405;-85
2021/07/04 00:47:19;;;;;;;6.00;3.88;;;19.60;98.90;;;;;;5030450;28;20461;-85
2021/07/04 00:49:45;;;;;;;6.43;4.07;;;19.50;98.90;;;;;;5055347;28;20421;-85
2021/07/04 00:52:10;;;;;;;5.18;4.05;;;19.50;99.00;;;;;;5061010;28;20024;-85
2021/07/04 00:54:36;;;;;;;4.93;3.90;;;19.50;99.10;;;;;;5081553;28;20032;-84
2021/07/04 00:57:02;;;;;;;5.10;3.97;;;19.50;99.20;;;;;;5060828;28;20049;-85
2021/07/04 00:59:28;;;;;;;8.15;4.45;;;19.50;99.40;;;;;;5044499;28;20402;-85
2021/07/04 01:01:58;;;;;;;4.82;3.65;;;19.40;99.50;;;;;;5060509;28;20028;-85
2021/07/04 01:04:28;;;;;;;5.25;4.03;;;19.40;99.70;;;;;;5038322;28;20049;-85
2021/07/04 01:06:54;;;;;;;6.25;4.07;;;19.40;99.80;;;;;;5074726;28;20050;-84
2021/07/04 01:09:20;;;;;;;5.28;4.10;;;19.30;99.90;;;;;;5059093;28;20032;-85
2021/07/04 01:11:47;;;;;;;7.30;3.90;;;19.30;99.90;;;;;;5047060;28;20058;-84
2021/07/04 01:14:13;;;;;;;5.55;4.45;;;19.30;99.90;;;;;;5071507;28;20098;-85
2021/07/04 01:16:39;;;;;;;5.35;4.22;;;19.30;99.90;;;;;;5053148;28;20028;-84
2021/07/04 01:19:06;;;;;;;5.88;4.00;;;19.40;99.90;;;;;;5044130;28;20799;-85
2021/07/04 01:21:33;;;;;;;7.70;4.50;;;19.40;99.90;;;;;;5041165;28;20128;-85
2021/07/04 01:23:59;;;;;;;6.00;4.30;;;19.40;99.90;;;;;;5052855;28;20032;-84
2021/07/04 01:26:25;;;;;;;7.38;4.10;;;19.40;99.90;;;;;;5057862;28;20115;-85
2021/07/04 01:28:51;;;;;;;5.03;4.07;;;19.40;99.90;;;;;;5080598;28;20130;-85
2021/07/04 01:31:16;;;;;;;6.30;4.50;;;19.40;99.90;;;;;;5064473;28;20493;-85
2021/07/04 01:33:42;;;;;;;5.38;4.53;;;19.40;99.90;;;;;;5060495;28;20043;-84
2021/07/04 01:36:10;;;;;;;5.50;4.05;;;19.40;99.90;;;;;;5077322;28;20154;-85
2021/07/04 01:38:36;;;;;;;5.10;3.90;;;19.40;99.90;;;;;;5077109;28;20036;-84
2021/07/04 01:41:02;;;;;;;7.32;4.65;;;19.40;99.90;;;;;;5073083;28;20031;-85
2021/07/04 01:43:28;;;;;;;6.28;4.28;;;19.40;99.90;;;;;;5059571;28;20069;-85
2021/07/04 01:45:54;;;;;;;5.57;4.25;;;19.40;99.90;;;;;;5060496;28;20471;-84
2021/07/04 01:48:19;;;;;;;6.00;4.65;;;19.40;99.90;;;;;;5060215;28;20390;-85
2021/07/04 01:50:48;;;;;;;5.53;4.32;;;19.50;99.90;;;;;;5060398;28;20024;-85
2021/07/04 01:53:18;;;;;;;6.00;4.53;;;19.40;99.90;;;;;;5076991;28;20024;-85
2021/07/04 01:55:44;;;;;;;6.97;4.67;;;19.40;99.90;;;;;;5066949;28;20127;-85
2021/07/04 01:58:10;;;;;;;6.78;4.45;;;19.40;99.90;;;;;;5067839;28;20124;-84
2021/07/04 02:00:36;;;;;;;5.05;4.15;;;19.40;99.90;;;;;;5066596;28;20362;-85
2021/07/04 02:03:04;;;;;;;5.40;4.20;;;19.50;99.90;;;;;;5069453;28;20058;-85
2021/07/04 02:05:30;;;;;;;5.57;4.22;;;19.40;99.90;;;;;;5073988;28;20028;-85
2021/07/04 02:07:56;;;;;;;5.40;4.45;;;19.40;99.90;;;;;;5074451;28;20366;-85
2021/07/04 02:10:31;;;;;;;5.78;4.05;;;19.40;99.90;;;;;;5076672;28;20457;-85
2021/07/04 02:12:57;;;;;;;5.40;4.20;;;19.40;99.90;;;;;;5094676;28;20024;-84
2021/07/04 02:15:25;;;;;;;5.88;4.28;;;19.40;99.90;;;;;;5060156;28;20056;-85
2021/07/04 02:17:51;;;;;;;6.07;4.45;;;19.40;99.90;;;;;;5060142;28;20036;-85
2021/07/04 02:20:25;;;;;;;7.35;4.68;;;19.40;99.90;;;;;;5060194;28;20020;-85
2021/07/04 02:22:51;;;;;;;5.88;4.78;;;19.40;99.90;;;;;;5084432;28;20036;-85
2021/07/04 02:25:17;;;;;;;6.32;4.90;;;19.40;99.90;;;;;;5041223;28;20377;-85
2021/07/04 02:27:43;;;;;;;6.30;4.65;;;19.40;99.90;;;;;;5071630;28;20024;-83
2021/07/04 02:30:09;;;;;;;6.53;4.45;;;19.40;99.90;;;;;;5039960;28;20021;-83
2021/07/04 02:32:35;;;;;;;5.80;4.68;;;19.40;99.90;;;;;;5046001;28;20393;-83
2021/07/04 02:35:03;;;;;;;6.45;4.93;;;19.40;99.90;;;;;;5059655;28;20020;-83
2021/07/04 02:37:29;;;;;;;5.40;4.38;;;19.30;99.90;;;;;;5068671;28;20027;-83
2021/07/04 02:39:55;;;;;;;5.95;4.50;;;19.40;99.90;;;;;;5072481;28;20110;-86
2021/07/04 02:42:21;;;;;;;5.03;4.05;;;19.30;99.90;;;;;;5059743;28;20090;-83
2021/07/04 02:44:46;;;;;;;6.30;5.38;;;19.40;99.90;;;;;;5056366;28;20092;-83
2021/07/04 02:47:12;;;;;;;5.82;4.50;;;19.40;99.90;;;;;;5050879;28;20597;-83
2021/07/04 02:49:38;;;;;;;5.82;4.93;;;19.40;99.90;;;;;;5043647;28;20031;-84
2021/07/04 02:52:04;;;;;;;4.95;4.28;;;19.40;99.90;;;;;;5040334;28;20048;-84
2021/07/04 02:54:30;;;;;;;5.57;4.43;;;19.40;99.90;;;;;;5075367;28;20085;-83
2021/07/04 02:56:55;;;;;;;5.57;4.78;;;19.40;99.90;;;;;;5076224;28;20035;-83
2021/07/04 02:59:21;;;;;;;6.03;4.65;;;19.40;99.90;;;;;;5043319;28;20043;-83
2021/07/04 03:01:47;;;;;;;6.20;4.57;;;19.40;99.90;;;;;;5066774;28;20414;-84
2021/07/04 03:04:12;;;;;;;5.50;4.63;;;19.40;99.90;;;;;;5051195;28;20036;-84
2021/07/04 03:06:38;;;;;;;6.85;4.80;;;19.40;99.90;;;;;;5079349;28;20024;-83
2021/07/04 03:09:04;;;;;;;5.93;4.80;;;19.40;99.90;;;;;;5094602;28;20042;-86
2021/07/04 03:11:30;;;;;;;5.53;4.57;;;19.40;99.90;;;;;;5088000;28;20043;-83
2021/07/04 03:13:56;;;;;;;5.43;4.60;;;19.40;99.90;;;;;;5049078;28;20096;-84
2021/07/04 03:16:21;;;;;;;6.53;5.18;;;19.50;99.90;;;;;;5083116;28;20028;-83
2021/07/04 03:18:47;;;;;;;6.38;5.07;;;19.40;99.90;;;;;;5049518;28;20466;-84
2021/07/04 03:21:13;;;;;;;7.38;4.68;;;19.40;99.90;;;;;;5074960;28;20039;-83
2021/07/04 03:23:38;;;;;;;5.97;4.55;;;19.50;99.90;;;;;;5051287;28;20466;-86
2021/07/04 03:26:04;;;;;;;5.40;4.45;;;19.40;99.90;;;;;;5046292;28;20029;-84
2021/07/04 03:28:30;;;;;;;6.70;4.47;;;19.50;99.90;;;;;;5061321;28;20119;-83
2021/07/04 03:30:55;;;;;;;6.20;4.57;;;19.40;99.90;;;;;;5045852;28;20028;-84
2021/07/04 03:33:21;;;;;;;5.97;4.78;;;19.50;99.90;;;;;;5045650;28;20045;-83
2021/07/04 03:35:47;;;;;;;7.40;5.07;;;19.40;99.90;;;;;;5047428;28;20132;-84
2021/07/04 03:38:12;;;;;;;6.63;5.20;;;19.40;99.90;;;;;;5077089;28;20035;-86
2021/07/04 03:40:38;;;;;;;5.75;4.90;;;19.40;99.90;;;;;;5063572;28;20031;-83
2021/07/04 03:43:04;;;;;;;6.57;5.03;;;19.40;99.90;;;;;;5043690;28;20494;-84
2021/07/04 03:45:30;;;;;;;6.55;4.88;;;19.40;99.90;;;;;;5059401;28;20124;-84
2021/07/04 03:47:55;;;;;;;7.40;5.40;;;19.40;99.90;;;;;;5078299;28;20115;-84
2021/07/04 03:50:21;;;;;;;5.97;5.10;;;19.40;99.90;;;;;;5032339;28;20043;-84
2021/07/04 03:52:48;;;;;;;6.55;5.32;;;19.40;99.90;;;;;;5072740;28;20481;-84
2021/07/04 03:55:14;;;;;;;6.43;5.10;;;19.40;99.90;;;;;;5069737;28;20032;-84
2021/07/04 03:57:40;;;;;;;5.82;5.20;;;19.40;99.90;;;;;;5047947;28;20023;-84
2021/07/04 04:00:07;;;;;;;5.85;5.07;;;19.40;99.90;;;;;;5061057;28;20028;-84
2021/07/04 04:02:33;;;;;;;6.03;5.00;;;19.40;99.90;;;;;;5037767;28;20020;-84
2021/07/04 04:04:59;;;;;;;5.75;5.10;;;19.40;99.90;;;;;;5054780;28;20067;-84
2021/07/04 04:07:25;;;;;;;5.85;4.95;;;19.40;99.90;;;;;;5066338;28;20028;-84
2021/07/04 04:09:52;;;;;;;5.47;4.78;;;19.40;99.90;;;;;;5049794;28;20131;-84
2021/07/04 04:12:21;;;;;;;6.35;5.07;;;19.40;99.90;;;;;;5052479;28;20029;-84
2021/07/04 04:14:47;;;;;;;6.90;5.68;;;19.40;99.90;;;;;;5090948;22;20048;-85
2021/07/04 04:17:13;;;;;;;8.35;5.35;;;19.40;99.90;;;;;;5091337;28;20027;-85
2021/07/04 04:19:39;;;;;;;6.32;5.25;;;19.40;99.90;;;;;;5054290;28;20028;-86
2021/07/04 04:22:05;;;;;;;6.78;5.60;;;19.40;99.90;;;;;;5053891;28;20021;-86
2021/07/04 04:24:31;;;;;;;8.98;6.10;;;19.40;99.90;;;;;;5059848;28;20043;-86
2021/07/04 04:26:56;;;;;;;7.10;6.28;;;19.40;99.90;;;;;;5058538;28;20024;-86
2021/07/04 04:29:22;;;;;;;10.52;6.75;;;19.40;99.90;;;;;;5074564;28;20440;-86
2021/07/04 04:31:48;;;;;;;7.78;6.72;;;19.40;99.90;;;;;;5041721;28;20389;-86
2021/07/04 04:34:15;;;;;;;8.55;6.90;;;19.40;99.90;;;;;;5089475;28;20020;-86
2021/07/04 04:36:41;;;;;;;7.97;6.43;;;19.40;99.90;;;;;;5078352;28;20024;-86
2021/07/04 04:39:07;;;;;;;7.18;6.22;;;19.40;99.90;;;;;;5070789;28;20417;-85
2021/07/04 04:41:35;;;;;;;7.68;6.65;;;19.40;99.90;;;;;;5077985;28;20024;-86
2021/07/04 04:44:02;;;;;;;8.88;7.47;;;19.50;99.90;;;;;;5078591;28;20067;-86
2021/07/04 04:46:28;;;;;;;9.15;7.50;;;19.40;99.90;;;;;;5078431;28;20024;-86
2021/07/04 04:48:54;;;;;;;9.40;8.40;;;19.40;99.90;;;;;;5078390;28;20035;-86
2021/07/04 04:51:20;;;;;;;9.82;8.32;;;19.40;99.90;;;;;;5061880;28;20065;-86
2021/07/04 04:53:45;;;;;;;12.20;9.13;;;19.40;99.90;;;;;;5058545;28;20024;-86
2021/07/04 04:56:11;;;;;;;8.90;8.00;;;19.40;99.90;;;;;;5058385;28;20461;-86
2021/07/04 04:58:37;;;;;;;10.27;9.18;;;19.40;99.90;;;;;;5065009;28;20035;-86
2021/07/04 05:01:02;;;;;;;9.80;8.80;;;19.40;99.90;;;;;;5060806;28;20055;-86
2021/07/04 05:03:28;;;;;;;11.50;9.07;;;19.30;99.90;;;;;;5084054;28;20032;-86
2021/07/04 05:05:54;;;;;;;9.82;8.82;;;19.40;99.90;;;;;;4960018;28;20029;-86
2021/07/04 05:08:19;;;;;;;10.70;9.25;;;19.40;99.90;;;;;;5066584;28;20072;-86
2021/07/04 05:10:45;;;;;;;10.13;9.13;;;19.40;99.90;;;;;;5073992;28;20020;-86
2021/07/04 05:13:11;;;;;;;9.80;8.80;;;19.40;99.90;;;;;;5077758;28;20020;-86
2021/07/04 05:15:36;;;;;;;11.00;8.90;;;19.30;99.90;;;;;;5076419;28;20492;-85
2021/07/04 05:18:05;;;;;;;12.18;8.98;;;19.30;99.90;;;;;;5049172;28;20024;-86
2021/07/04 05:20:32;;;;;;;10.70;9.38;;;19.30;99.90;;;;;;5062892;28;20048;-85
2021/07/04 05:22:58;;;;;;;11.52;9.65;;;19.30;99.90;;;;;;5060736;28;20059;-86
2021/07/04 05:25:24;;;;;;;12.18;10.60;;;19.30;99.90;;;;;;5077714;28;20430;-86
2021/07/04 05:27:49;;;;;;;11.77;10.15;;;19.30;99.90;;;;;;5057406;28;20074;-86
2021/07/04 05:30:15;;;;;;;13.18;10.68;;;19.30;99.90;;;;;;5057237;28;20377;-86
2021/07/04 05:32:41;;;;;;;12.30;10.68;;;19.30;99.90;;;;;;5056075;28;20119;-86
2021/07/04 05:35:08;;;;;;;13.00;10.52;;;19.30;99.90;;;;;;4976847;28;20127;-86
2021/07/04 05:37:34;;;;;;;12.20;10.90;;;19.20;99.90;;;;;;5093012;28;20488;-86
2021/07/04 05:40:02;;;;;;;14.07;11.45;;;19.20;99.90;;;;;;5060787;28;20028;-86
2021/07/04 05:42:29;;;;;;;13.77;11.35;;;19.20;99.90;;;;;;5060902;28;20028;-86
2021/07/04 05:44:55;;;;;;;14.00;12.05;;;19.20;99.90;;;;;;5059136;28;20087;-86
2021/07/04 05:47:20;;;;;;;13.80;11.93;;;19.30;99.90;;;;;;5068065;28;20043;-86
2021/07/04 05:49:46;;;;;;;13.85;12.05;;;19.20;99.90;;;;;;5095203;28;20039;-86
2021/07/04 05:52:12;;;;;;;14.32;11.88;;;19.30;99.90;;;;;;5060450;28;20028;-85
2021/07/04 05:54:38;;;;;;;16.02;13.65;;;19.30;99.90;;;;;;5058015;28;20045;-86
2021/07/04 05:57:06;;;;;;;17.33;13.90;;;19.30;99.90;;;;;;5090664;28;20078;-86
2021/07/04 05:59:35;;;;;;;15.95;13.63;;;19.30;99.90;;;;;;5063078;28;20508;-86
2021/07/04 06:02:02;;;;;;;18.85;14.27;;;19.30;99.90;;;;;;5054226;28;20123;-86
2021/07/04 06:04:27;;;;;;;18.80;14.45;;;19.40;99.90;;;;;;5044239;28;20025;-86
2021/07/04 06:06:53;;;;;;;21.65;15.32;;;19.40;99.90;;;;;;5062532;28;20046;-86
2021/07/04 06:09:19;;;;;;;19.08;14.98;;;19.40;99.90;;;;;;5060174;28;20022;-86
2021/07/04 06:11:49;;;;;;;19.63;15.45;;;19.40;99.90;;;;;;5084883;28;20036;-86
2021/07/04 06:14:14;;;;;;;20.25;15.82;;;19.40;99.90;;;;;;5052826;28;20069;-86
2021/07/04 06:16:40;;;;;;;20.65;15.32;;;19.40;99.90;;;;;;5023338;28;20027;-86
2021/07/04 06:19:06;;;;;;;19.92;14.70;;;19.40;99.90;;;;;;4968452;28;20361;-86
2021/07/04 06:21:31;;;;;;;18.55;14.68;;;19.40;99.90;;;;;;5036429;28;20357;-86
2021/07/04 06:23:57;;;;;;;20.33;15.45;;;19.40;99.90;;;;;;4967448;28;20110;-86
2021/07/04 06:26:22;;;;;;;23.30;16.05;;;19.40;99.90;;;;;;5023483;28;20042;-86
2021/07/04 06:28:48;;;;;;;20.35;15.40;;;19.40;99.90;;;;;;5006729;28;20023;-86
2021/07/04 06:31:14;;;;;;;21.65;15.63;;;19.40;99.90;;;;;;5053773;28;20046;-86
2021/07/04 06:33:39;;;;;;;23.08;17.35;;;19.50;99.90;;;;;;5036470;28;20035;-86
2021/07/04 06:36:05;;;;;;;27.13;18.85;;;19.50;99.90;;;;;;5019346;28;20184;-85
2021/07/04 06:38:31;;;;;;;25.88;19.10;;;19.50;99.90;;;;;;5031199;28;20030;-86
2021/07/04 06:40:56;;;;;;;27.88;20.02;;;19.60;99.90;;;;;;5041374;28;20113;-85
2021/07/04 06:43:22;;;;;;;24.80;18.55;;;19.60;99.90;;;;;;5025667;28;20491;-85
2021/07/04 06:45:48;;;;;;;25.60;18.42;;;19.60;99.90;;;;;;5036392;28;20035;-86
2021/07/04 06:48:13;;;;;;;28.67;20.30;;;19.70;99.90;;;;;;5050648;28;20033;-86
2021/07/04 06:50:39;;;;;;;28.02;19.48;;;19.70;99.90;;;;;;5007199;28;20025;-85
2021/07/04 06:53:05;;;;;;;27.58;20.30;;;19.70;99.90;;;;;;5056755;28;20483;-86
2021/07/04 06:55:30;;;;;;;28.00;20.48;;;19.70;99.90;;;;;;5038597;28;20034;-86
2021/07/04 06:57:56;;;;;;;26.35;20.42;;;19.70;99.90;;;;;;5039032;28;20070;-86
2021/07/04 07:00:22;;;;;;;30.73;22.55;;;19.80;99.90;;;;;;5053244;28;20369;-85
2021/07/04 07:02:47;;;;;;;30.88;23.15;;;19.80;99.90;;;;;;5019366;28;20039;-86
2021/07/04 07:05:14;;;;;;;32.30;23.30;;;19.80;99.90;;;;;;4954433;28;20027;-86
2021/07/04 07:07:41;;;;;;;30.98;23.33;;;19.80;99.90;;;;;;5053324;28;20071;-86
2021/07/04 07:10:09;;;;;;;31.15;23.92;;;19.80;99.90;;;;;;5064910;28;20017;-86
2021/07/04 07:12:35;;;;;;;33.40;24.88;;;19.90;99.90;;;;;;5055484;28;20024;-85
2021/07/04 07:15:01;;;;;;;38.47;27.33;;;19.90;99.90;;;;;;5035305;28;20056;-86
2021/07/04 07:17:27;;;;;;;33.05;25.02;;;19.90;99.90;;;;;;5052419;28;20028;-87
2021/07/04 07:19:53;;;;;;;32.35;25.10;;;19.90;99.90;;;;;;5038547;28;20027;-87
2021/07/04 07:22:20;;;;;;;34.83;27.00;;;19.90;99.90;;;;;;5051955;28;20107;-87
2021/07/04 07:24:47;;;;;;;36.25;25.98;;;19.90;99.90;;;;;;5072712;28;20024;-87
2021/07/04 07:27:12;;;;;;;38.08;25.75;;;19.90;99.90;;;;;;5072697;28;20020;-87
2021/07/04 07:29:38;;;;;;;32.97;24.50;;;19.90;99.90;;;;;;5076934;28;20024;-86
2021/07/04 07:32:04;;;;;;;33.53;24.98;;;19.90;99.90;;;;;;5034839;28;20021;-86
2021/07/04 07:37:56;;;;;;;38.13;28.17;;;20.00;99.90;;;;;;5068724;28;20068;-86
2021/07/04 07:40:21;;;;;;;38.17;27.45;;;20.10;99.90;;;;;;5050662;28;20028;-87
2021/07/04 07:42:47;;;;;;;37.95;28.40;;;20.00;99.90;;;;;;5022270;28;20382;-86
2021/07/04 07:45:13;;;;;;;35.25;28.00;;;20.00;99.90;;;;;;5050511;28;20037;-86
2021/07/04 07:47:38;;;;;;;35.58;27.02;;;20.00;99.90;;;;;;5050734;28;20052;-87
2021/07/04 07:50:06;;;;;;;37.22;28.02;;;20.00;99.90;;;;;;5036501;28;20050;-86
2021/07/04 07:52:32;;;;;;;36.15;26.42;;;20.00;99.90;;;;;;5052313;28;20025;-86
2021/07/04 07:54:58;;;;;;;38.33;28.65;;;20.00;99.90;;;;;;5033421;28;20120;-87
2021/07/04 07:57:23;;;;;;;37.30;27.15;;;20.10;99.90;;;;;;5053644;28;20439;-87
2021/07/04 07:59:49;;;;;;;34.08;25.58;;;20.10;99.90;;;;;;5072258;28;20025;-87
2021/07/04 08:02:15;;;;;;;35.97;26.55;;;20.10;99.90;;;;;;5033898;28;20478;-86
2021/07/04 08:04:41;;;;;;;35.20;27.13;;;20.10;99.90;;;;;;5054439;28;20063;-86
2021/07/04 08:07:07;;;;;;;37.05;27.58;;;20.10;99.90;;;;;;5053924;28;20024;-86
2021/07/04 08:09:33;;;;;;;35.35;27.55;;;20.10;99.90;;;;;;5054383;28;20028;-87
2021/07/04 08:11:59;;;;;;;36.72;26.85;;;20.20;99.90;;;;;;5054308;28;20143;-87
2021/07/04 08:14:24;;;;;;;33.05;24.98;;;20.20;99.90;;;;;;5064870;28;20063;-87
2021/07/04 08:16:50;;;;;;;35.85;25.25;;;20.20;99.90;;;;;;5064854;28;20051;-86
2021/07/04 08:19:16;;;;;;;33.38;25.52;;;20.30;99.90;;;;;;5073436;28;20033;-86
2021/07/04 08:21:42;;;;;;;36.30;25.48;;;20.30;99.90;;;;;;5083194;28;20102;-86
2021/07/04 08:24:08;;;;;;;35.55;25.50;;;20.40;99.90;;;;;;5074354;28;20032;-87
2021/07/04 08:26:34;;;;;;;38.03;26.83;;;20.40;99.90;;;;;;5065689;28;20078;-87
2021/07/04 08:29:01;;;;;;;33.15;25.73;;;20.50;99.90;;;;;;5085885;28;20035;-86
2021/07/04 08:31:27;;;;;;;33.67;25.95;;;20.50;99.90;;;;;;5074677;28;20044;-87
2021/07/04 08:33:53;;;;;;;35.25;25.58;;;20.60;99.90;;;;;;5074913;28;20377;-86
2021/07/04 08:36:20;;;;;;;34.78;25.60;;;20.60;99.90;;;;;;5058035;28;20024;-86
2021/07/04 08:38:45;;;;;;;33.17;24.85;;;20.60;99.90;;;;;;5074252;28;20469;-86
2021/07/04 08:41:13;;;;;;;30.45;24.33;;;20.70;99.90;;;;;;5088947;28;20050;-85
2021/07/04 08:43:39;;;;;;;32.60;24.08;;;20.70;99.90;;;;;;5054636;28;20386;-86
2021/07/04 08:46:06;;;;;;;32.25;24.42;;;20.80;99.90;;;;;;5088459;28;20024;-87
2021/07/04 08:48:40;;;;;;;33.00;25.35;;;20.80;99.90;;;;;;5066256;28;20351;-86
2021/07/04 08:51:07;;;;;;;31.27;21.80;;;20.90;99.90;;;;;;5040241;28;20036;-86
2021/07/04 08:53:33;;;;;;;32.38;23.15;;;21.00;99.90;;;;;;5049609;28;20025;-86
2021/07/04 08:56:01;;;;;;;29.85;23.20;;;21.00;99.90;;;;;;5054209;28;20025;-86
2021/07/04 08:58:28;;;;;;;29.23;21.98;;;21.10;99.90;;;;;;5060731;28;20032;-86
2021/07/04 09:01:10;;;;;;;26.60;21.02;;;21.10;99.90;;;;;;5070058;28;20038;-86
2021/07/04 09:03:35;;;;;;;27.75;21.17;;;21.20;99.90;;;;;;5077547;28;20028;-86
2021/07/04 09:06:01;;;;;;;29.08;22.00;;;21.20;99.90;;;;;;5054098;28;20398;-86
2021/07/04 09:08:27;;;;;;;29.75;22.05;;;21.30;99.90;;;;;;5075864;28;20378;-87
2021/07/04 09:11:12;;;;;;;31.23;21.77;;;21.30;99.90;;;;;;5076075;28;20024;-86
2021/07/04 09:13:39;;;;;;;27.52;20.88;;;21.40;99.90;;;;;;5094220;28;20024;-86
2021/07/04 09:16:08;;;;;;;29.38;21.52;;;21.40;99.90;;;;;;5068983;28;20048;-86
2021/07/04 09:18:35;;;;;;;25.77;20.02;;;21.40;99.90;;;;;;5073957;28;20378;-87
2021/07/04 09:21:01;;;;;;;26.08;20.45;;;21.40;99.90;;;;;;5058196;28;20033;-86
2021/07/04 09:23:37;;;;;;;26.60;21.77;;;21.50;99.90;;;;;;5071488;28;20421;-87
2021/07/04 09:26:03;;;;;;;27.30;21.67;;;21.50;99.90;;;;;;5068627;28;20028;-86
2021/07/04 09:28:29;;;;;;;26.98;20.83;;;21.40;99.90;;;;;;5080770;28;20122;-86
2021/07/04 09:30:58;;;;;;;23.65;19.08;;;21.50;99.90;;;;;;5067125;28;20020;-86
2021/07/04 09:33:35;;;;;;;23.88;19.23;;;21.40;99.90;;;;;;5095077;28;20048;-86
2021/07/04 09:36:06;;;;;;;21.83;17.75;;;21.50;99.90;;;;;;5078725;28;20525;-87
2021/07/04 09:38:34;;;;;;;22.23;17.35;;;21.50;99.90;;;;;;5078779;28;20036;-87
2021/07/04 09:41:00;;;;;;;23.50;19.00;;;21.60;99.90;;;;;;5061282;28;20028;-87
2021/07/04 09:43:30;;;;;;;21.55;18.65;;;21.60;99.90;;;;;;5061635;28;20021;-87
2021/07/04 09:45:59;;;;;;;22.67;18.80;;;21.60;99.90;;;;;;5091494;28;20028;-86
2021/07/04 09:48:30;;;;;;;22.25;18.58;;;21.60;99.90;;;;;;5083941;28;20026;-86
2021/07/04 09:51:11;;;;;;;24.98;20.30;;;21.50;99.90;;;;;;5085886;28;20460;-86
2021/07/04 09:53:44;;;;;;;23.80;19.25;;;21.50;99.90;;;;;;5077916;28;20031;-87
2021/07/04 09:56:30;;;;;;;22.48;18.77;;;21.50;99.90;;;;;;5077443;28;20458;-86
2021/07/04 09:58:58;;;;;;;21.02;18.05;;;21.50;99.90;;;;;;5077404;28;20465;-86
2021/07/04 10:01:50;;;;;;;19.98;16.73;;;21.50;99.90;;;;;;5063093;28;20024;-86
2021/07/04 10:04:26;;;;;;;23.88;19.70;;;21.60;99.90;;;;;;5065023;28;20044;-86
2021/07/04 10:06:52;;;;;;;20.10;17.95;;;21.60;99.90;;;;;;5078031;28;20473;-87
2021/07/04 10:09:20;;;;;;;20.85;18.50;;;21.70;99.90;;;;;;5086076;28;20457;-86
2021/07/04 10:12:19;;;;;;;20.90;17.30;;;21.70;99.90;;;;;;5042960;28;20139;-87
2021/07/04 10:14:45;;;;;;;19.70;16.25;;;21.80;99.90;;;;;;5083663;22;20071;-85
2021/07/04 10:17:11;;;;;;;18.45;15.93;;;21.80;99.90;;;;;;5056169;28;20021;-85
2021/07/04 10:19:38;;;;;;;21.35;17.48;;;21.90;99.90;;;;;;5056004;28;20492;-85
2021/07/04 10:22:05;;;;;;;23.23;17.73;;;21.90;99.90;;;;;;5052434;28;20036;-85
2021/07/04 10:24:31;;;;;;;18.95;16.60;;;22.00;99.90;;;;;;5072088;28;20354;-86
2021/07/04 10:27:01;;;;;;;20.20;16.38;;;22.00;99.90;;;;;;5076032;28;20035;-85
2021/07/04 10:29:29;;;;;;;18.40;15.23;;;22.10;99.90;;;;;;5075658;28;20055;-85
2021/07/04 10:32:05;;;;;;;17.80;15.68;;;22.10;99.90;;;;;;5085817;28;20123;-85
2021/07/04 10:34:46;;;;;;;18.80;16.65;;;22.20;99.90;;;;;;5069817;28;20024;-85
2021/07/04 10:37:13;;;;;;;16.80;14.73;;;22.30;99.90;;;;;;5092747;28;20247;-85
2021/07/04 10:39:39;;;;;;;18.98;16.20;;;22.30;99.90;;;;;;5086896;28;20070;-85
2021/07/04 10:42:10;;;;;;;18.42;16.42;;;22.40;99.90;;;;;;5085846;28;20461;-85
2021/07/04 10:44:43;;;;;;;;;;;22.40;99.90;;;;;;5069455;28;20043;-85
2021/07/04 10:47:13;;;;;;;18.40;15.52;;;22.40;99.90;;;;;;5073795;28;19943;-85
2021/07/04 10:49:48;;;;;;;18.05;15.38;;;22.40;99.90;;;;;;5067512;28;20024;-85
2021/07/04 10:52:14;;;;;;;18.63;16.60;;;22.40;99.90;;;;;;5075182;28;20027;-85
2021/07/04 10:54:49;;;;;;;16.50;14.70;;;22.40;99.90;;;;;;5075313;28;20416;-85
2021/07/04 10:57:33;;;;;;;19.48;16.60;;;22.40;99.90;;;;;;5076342;28;20057;-85
2021/07/04 10:59:59;;;;;;;21.35;17.80;;;22.40;99.90;;;;;;5092089;28;20016;-85
2021/07/04 11:02:51;;;;;;;22.60;17.77;;;22.40;99.90;;;;;;5074948;28;20035;-85
2021/07/04 11:05:41;;;;;;;19.45;17.10;;;22.40;99.90;;;;;;5080113;28;20031;-85
2021/07/04 11:08:24;;;;;;;19.30;17.13;;;22.50;99.90;;;;;;5093277;28;20114;-85
2021/07/04 11:10:49;;;;;;;17.60;14.70;;;22.50;99.90;;;;;;5089218;28;20016;-86
2021/07/04 11:13:15;;;;;;;19.92;16.60;;;22.50;99.90;;;;;;5064378;28;20058;-85
2021/07/04 11:16:01;;;;;;;19.42;15.90;;;22.50;99.90;;;;;;5089668;28;20039;-85
2021/07/04 11:19:06;;;;;;;19.85;17.27;;;22.60;99.90;;;;;;5091460;28;20043;-85
2021/07/04 11:21:49;;;;;;;18.95;16.30;;;22.60;99.90;;;;;;5057686;28;20044;-85
2021/07/04 11:24:17;;;;;;;18.20;16.27;;;22.60;99.90;;;;;;5074501;28;20389;-85
2021/07/04 11:27:03;;;;;;;19.15;17.00;;;22.70;99.90;;;;;;5074821;28;20082;-85
2021/07/04 11:29:28;;;;;;;19.85;16.63;;;22.70;98.80;;;;;;5077201;28;20024;-85
2021/07/04 11:31:54;;;;;;;17.85;15.38;;;22.70;99.90;;;;;;5074854;28;20027;-85
2021/07/04 11:34:20;;;;;;;20.98;16.48;;;22.70;99.90;;;;;;5072663;28;20392;-85
2021/07/04 11:36:47;;;;;;;17.70;14.98;;;22.80;99.90;;;;;;5061981;28;20031;-85
2021/07/04 11:39:13;;;;;;;19.45;16.25;;;22.90;99.90;;;;;;5074642;28;20114;-85
2021/07/04 11:41:46;;;;;;;21.15;16.73;;;22.90;99.90;;;;;;5054473;28;20070;-84
2021/07/04 11:44:14;;;;;;;19.77;16.73;;;22.90;99.80;;;;;;5074662;28;20032;-85
2021/07/04 11:46:51;;;;;;;19.45;17.15;;;22.90;99.30;;;;;;5074333;28;20039;-85
2021/07/04 11:49:26;;;;;;;21.65;17.50;;;23.00;99.40;;;;;;5073796;28;20101;-85
2021/07/04 11:51:58;;;;;;;19.05;16.10;;;23.00;99.40;;;;;;5077576;28;20025;-85
2021/07/04 11:54:26;;;;;;;19.48;17.40;;;23.10;99.40;;;;;;5092516;28;20055;-85
2021/07/04 11:56:55;;;;;;;19.92;17.15;;;23.20;99.00;;;;;;5074349;28;20023;-85
2021/07/04 11:59:35;;;;;;;18.92;16.40;;;23.20;98.40;;;;;;5073794;28;20080;-85
2021/07/04 12:02:02;;;;;;;18.58;16.58;;;23.20;98.30;;;;;;5073396;28;20110;-85
2021/07/04 12:04:44;;;;;;;17.05;14.75;;;23.20;97.40;;;;;;5074059;28;20114;-85
2021/07/04 12:07:22;;;;;;;17.40;14.82;;;23.30;98.40;;;;;;5058487;28;20028;-85
2021/07/04 12:09:51;;;;;;;15.25;13.35;;;23.40;98.70;;;;;;5074172;28;20054;-85
2021/07/04 12:12:18;;;;;;;14.80;12.18;;;23.40;98.30;;;;;;5060449;28;20031;-85
2021/07/04 12:14:45;;;;;;;13.63;10.77;;;23.50;98.00;;;;;;5070599;28;20140;-85
2021/07/04 12:17:27;;;;;;;9.82;8.45;;;23.50;97.90;;;;;;5053902;28;20020;-85
2021/07/04 12:20:00;;;;;;;8.55;7.35;;;23.50;97.90;;;;;;5067042;28;20105;-85
2021/07/04 12:22:31;;;;;;;10.38;6.97;;;23.60;98.20;;;;;;5053960;28;20032;-85
2021/07/04 12:24:58;;;;;;;7.85;6.35;;;23.70;97.40;;;;;;5053821;28;20470;-85
2021/07/04 12:27:38;;;;;;;12.85;10.25;;;23.70;97.10;;;;;;5032569;28;20482;-85
2021/07/04 12:30:09;;;;;;;13.93;10.82;;;23.70;94.50;;;;;;5059089;28;20028;-85
2021/07/04 12:32:40;;;;;;;14.23;10.63;;;23.70;95.50;;;;;;5070928;28;20025;-85
2021/07/04 12:35:08;;;;;;;13.52;9.20;;;23.70;95.50;;;;;;5053663;28;20028;-85
2021/07/04 12:37:35;;;;;;;11.07;8.85;;;23.80;94.40;;;;;;5053839;28;20017;-85
2021/07/04 12:40:29;;;;;;;9.40;7.10;;;23.80;94.90;;;;;;5053666;28;20032;-84
2021/07/04 12:43:06;;;;;;;8.43;6.68;;;23.80;95.20;;;;;;5074850;28;20123;-85